createdAt,value
2018-12-30T00:00:46.249Z,95.55
2018-12-30T00:03:15.541Z,95.06
2018-12-30T00:05:45.142Z,94.98
2018-12-30T00:08:14.743Z,95.09
2018-12-30T00:10:44.065Z,95.20
2018-12-30T00:13:13.388Z,94.46
2018-12-30T00:15:42.721Z,94.92
2018-12-30T00:18:12.048Z,94.52
2018-12-30T00:20:41.566Z,94.87
2018-12-30T00:23:10.871Z,95.43
2018-12-30T00:25:40.206Z,95.52
2018-12-30T00:28:09.523Z,95.16
2018-12-30T00:30:38.869Z,95.57
2018-12-30T00:33:09.191Z,96.16
2018-12-30T00:35:38.500Z,95.93
2018-12-30T00:38:08.079Z,95.92
2018-12-30T00:40:37.385Z,95.70
2018-12-30T00:43:06.709Z,95.08
2018-12-30T00:45:35.994Z,95.61
2018-12-30T00:48:05.303Z,95.84
2018-12-30T00:50:34.899Z,96.62
2018-12-30T00:53:04.201Z,96.85
2018-12-30T00:55:33.546Z,97.38
2018-12-30T00:58:02.873Z,97.33
2018-12-30T01:00:32.215Z,97.82
2018-12-30T01:03:01.521Z,97.05
2018-12-30T01:05:30.850Z,97.21
2018-12-30T01:08:00.171Z,97.50
2018-12-30T01:10:29.495Z,98.44
2018-12-30T01:12:58.881Z,99.03
2018-12-30T01:15:28.230Z,98.99
2018-12-30T01:17:57.851Z,99.14
2018-12-30T01:20:27.182Z,98.95
2018-12-30T01:22:56.500Z,99.38
2018-12-30T01:25:25.820Z,98.63
2018-12-30T01:27:55.134Z,98.16
2018-12-30T01:30:24.782Z,98.70
2018-12-30T01:32:54.097Z,97.46
2018-12-30T01:35:23.400Z,97.36
2018-12-30T01:37:52.732Z,96.15
2018-12-30T01:40:22.058Z,95.97
2018-12-30T01:42:51.395Z,96.41
2018-12-30T01:45:20.697Z,95.79
2018-12-30T01:47:50.053Z,95.65
2018-12-30T01:50:21.924Z,95.94
2018-12-30T01:52:50.416Z,96.64
2018-12-30T01:55:19.753Z,96.92
2018-12-30T01:57:49.081Z,96.65
2018-12-30T02:00:18.391Z,97.68
2018-12-30T02:02:47.727Z,96.98
2018-12-30T02:05:17.062Z,97.17
2018-12-30T02:07:46.372Z,97.91
2018-12-30T02:10:15.670Z,98.06
2018-12-30T02:12:45.011Z,98.15
2018-12-30T02:15:14.373Z,98.56
2018-12-30T02:17:43.697Z,97.83
2018-12-30T02:20:14.187Z,97.54
2018-12-30T02:22:43.499Z,97.18
2018-12-30T02:25:12.812Z,96.72
2018-12-30T02:27:42.159Z,96.97
2018-12-30T02:30:11.517Z,96.50
2018-12-30T02:32:41.093Z,96.92
2018-12-30T02:35:10.398Z,97.14
2018-12-30T02:37:39.715Z,96.61
2018-12-30T02:40:09.026Z,96.38
2018-12-30T02:42:38.418Z,97.12
2018-12-30T02:45:08.028Z,96.86
2018-12-30T02:47:37.355Z,97.15
2018-12-30T02:50:06.735Z,97.11
2018-12-30T02:52:36.061Z,96.74
2018-12-30T02:55:06.119Z,97.04
2018-12-30T02:57:35.432Z,96.91
2018-12-30T03:00:06.513Z,97.18
2018-12-30T03:02:35.841Z,96.91
2018-12-30T03:05:05.922Z,97.31
2018-12-30T03:07:35.544Z,96.99
2018-12-30T03:10:04.955Z,97.30
2018-12-30T03:12:34.270Z,96.87
2018-12-30T03:15:03.624Z,96.72
2018-12-30T03:17:33.238Z,96.49
2018-12-30T03:20:02.550Z,96.73
2018-12-30T03:22:31.888Z,95.57
2018-12-30T03:25:01.225Z,95.68
2018-12-30T03:27:30.514Z,95.70
2018-12-30T03:29:59.830Z,95.36
2018-12-30T03:32:30.084Z,96.04
2018-12-30T03:34:59.413Z,95.65
2018-12-30T03:37:28.771Z,95.06
2018-12-30T03:39:58.141Z,95.01
2018-12-30T03:42:27.563Z,95.16
2018-12-30T03:44:56.873Z,94.34
2018-12-30T03:47:26.268Z,94.65
2018-12-30T03:49:55.602Z,94.92
2018-12-30T03:52:24.895Z,94.62
2018-12-30T03:54:55.412Z,94.98
2018-12-30T03:57:24.724Z,95.27
2018-12-30T03:59:54.041Z,95.70
2018-12-30T04:02:23.356Z,95.56
2018-12-30T04:04:52.676Z,95.86
2018-12-30T04:07:22.012Z,96.11
2018-12-30T04:09:52.355Z,96.03
2018-12-30T04:12:21.655Z,95.95
2018-12-30T04:14:50.951Z,95.83
2018-12-30T04:17:20.297Z,95.88
2018-12-30T04:19:49.606Z,95.46
2018-12-30T04:22:18.957Z,95.58
2018-12-30T04:24:48.256Z,96.23
2018-12-30T04:27:17.589Z,96.15
2018-12-30T04:29:46.923Z,96.55
2018-12-30T04:32:16.218Z,96.24
2018-12-30T04:34:45.535Z,96.51
2018-12-30T04:37:15.776Z,96.70
2018-12-30T04:39:45.086Z,96.75
2018-12-30T04:42:14.390Z,96.86
2018-12-30T04:44:43.709Z,96.98
2018-12-30T04:47:13.034Z,96.79
2018-12-30T04:49:42.337Z,96.91
2018-12-30T04:52:11.635Z,97.47
2018-12-30T04:54:40.975Z,97.55
2018-12-30T04:57:10.300Z,97.39
2018-12-30T04:59:39.649Z,97.36
2018-12-30T05:02:08.947Z,97.26
2018-12-30T05:04:38.294Z,97.26
2018-12-30T05:07:07.596Z,97.47
2018-12-30T05:09:37.905Z,97.41
2018-12-30T05:12:07.232Z,97.88
2018-12-30T05:14:36.570Z,97.54
2018-12-30T05:17:05.894Z,97.58
2018-12-30T05:19:35.222Z,98.11
2018-12-30T05:22:04.577Z,98.06
2018-12-30T05:24:33.889Z,97.41
2018-12-30T05:27:03.207Z,97.78
2018-12-30T05:29:32.524Z,98.13
2018-12-30T05:32:01.887Z,97.81
2018-12-30T05:34:31.209Z,97.64
2018-12-30T05:37:00.558Z,98.74
2018-12-30T05:39:29.875Z,97.73
2018-12-30T05:41:59.224Z,98.14
2018-12-30T05:44:28.514Z,98.48
2018-12-30T05:46:57.882Z,98.87
2018-12-30T05:49:27.206Z,98.29
2018-12-30T05:51:56.507Z,98.84
2018-12-30T05:54:25.806Z,99.09
2018-12-30T05:56:55.122Z,99.91
2018-12-30T05:59:24.476Z,99.15
2018-12-30T06:01:53.771Z,99.42
2018-12-30T06:04:23.074Z,98.93
2018-12-30T06:06:52.536Z,99.51
2018-12-30T06:09:22.861Z,99.21
2018-12-30T06:11:52.163Z,99.62
2018-12-30T06:14:22.459Z,99.39
2018-12-30T06:16:51.790Z,100.00
2018-12-30T06:19:22.095Z,99.97
2018-12-30T06:21:51.403Z,99.23
2018-12-30T06:24:20.701Z,98.84
2018-12-30T06:26:50.041Z,100.00
2018-12-30T06:29:19.356Z,99.89
2018-12-30T06:31:48.707Z,100.00
2018-12-30T06:34:18.024Z,100.00
2018-12-30T06:36:47.364Z,100.00
2018-12-30T06:39:16.730Z,100.00
2018-12-30T06:41:46.005Z,100.00
2018-12-30T06:44:15.321Z,100.00
2018-12-30T06:46:44.625Z,100.00
2018-12-30T06:49:13.960Z,100.00
2018-12-30T06:51:43.576Z,100.00
2018-12-30T06:54:12.909Z,100.00
2018-12-30T06:56:42.238Z,100.00
2018-12-30T06:59:11.577Z,100.00
2018-12-30T07:01:40.925Z,100.00
2018-12-30T07:04:10.321Z,100.00
2018-12-30T07:06:39.673Z,100.00
2018-12-30T07:09:09.008Z,100.00
2018-12-30T07:11:38.318Z,100.00
2018-12-30T07:14:08.619Z,100.00
2018-12-30T07:16:37.976Z,100.00
2018-12-30T07:19:07.302Z,100.00
2018-12-30T07:21:36.642Z,100.00
2018-12-30T07:24:06.000Z,100.00
2018-12-30T07:26:35.329Z,100.00
2018-12-30T07:29:04.677Z,100.00
2018-12-30T07:31:34.006Z,100.00
2018-12-30T07:34:03.411Z,100.00
2018-12-30T07:36:32.710Z,100.00
2018-12-30T07:39:02.044Z,100.00
2018-12-30T07:41:31.385Z,100.00
2018-12-30T07:44:00.727Z,100.00
2018-12-30T07:46:30.988Z,100.00
2018-12-30T07:49:00.324Z,100.00
2018-12-30T07:51:29.644Z,100.00
2018-12-30T07:53:58.972Z,100.00
2018-12-30T07:56:28.289Z,100.00
2018-12-30T07:58:57.616Z,100.00
2018-12-30T08:01:26.939Z,100.00
2018-12-30T08:03:56.267Z,100.00
2018-12-30T08:06:25.565Z,100.00
2018-12-30T08:08:54.888Z,100.00
2018-12-30T08:11:24.210Z,100.00
2018-12-30T08:13:53.559Z,100.00
2018-12-30T08:16:22.891Z,100.00
2018-12-30T08:18:52.254Z,100.00
2018-12-30T08:21:21.557Z,100.00
2018-12-30T08:23:50.882Z,100.00
2018-12-30T08:26:20.200Z,100.00
2018-12-30T08:28:50.414Z,100.00
2018-12-30T08:31:19.740Z,100.00
2018-12-30T08:33:49.093Z,100.00
2018-12-30T08:36:18.423Z,100.00
2018-12-30T08:38:47.739Z,99.71
2018-12-30T08:41:17.080Z,98.91
2018-12-30T08:43:46.404Z,100.00
2018-12-30T08:46:15.742Z,99.78
2018-12-30T08:48:45.065Z,100.00
2018-12-30T08:51:18.522Z,99.39
2018-12-30T08:53:47.833Z,99.32
2018-12-30T08:56:17.130Z,99.31
2018-12-30T08:58:46.490Z,100.00
2018-12-30T09:01:15.822Z,99.44
2018-12-30T09:03:45.146Z,98.69
2018-12-30T09:06:14.482Z,98.93
2018-12-30T09:08:43.803Z,98.37
2018-12-30T09:11:13.131Z,99.49
2018-12-30T09:13:42.470Z,99.27
2018-12-30T09:16:11.782Z,98.72
2018-12-30T09:18:41.100Z,98.68
2018-12-30T09:21:10.428Z,98.52
2018-12-30T09:23:39.749Z,97.78
2018-12-30T09:26:09.045Z,96.43
2018-12-30T09:28:38.393Z,95.59
2018-12-30T09:31:07.701Z,96.17
2018-12-30T09:33:37.014Z,96.86
2018-12-30T09:36:06.424Z,96.63
2018-12-30T09:38:35.721Z,97.87
2018-12-30T09:41:05.020Z,97.66
2018-12-30T09:43:34.326Z,98.24
2018-12-30T09:46:03.673Z,98.10
2018-12-30T09:48:33.953Z,98.47
2018-12-30T09:51:03.388Z,98.17
2018-12-30T09:53:32.724Z,98.72
2018-12-30T09:56:02.147Z,97.73
2018-12-30T09:58:31.457Z,98.13
2018-12-30T10:01:00.797Z,97.50
2018-12-30T10:03:30.116Z,97.33
2018-12-30T10:05:59.448Z,97.84
2018-12-30T10:08:28.756Z,97.53
2018-12-30T10:10:58.071Z,98.26
2018-12-30T10:13:27.388Z,98.18
2018-12-30T10:15:57.714Z,98.31
2018-12-30T10:18:27.141Z,98.88
2018-12-30T10:20:56.438Z,98.74
2018-12-30T10:23:25.762Z,98.16
2018-12-30T10:25:55.062Z,98.90
2018-12-30T10:28:24.394Z,99.25
2018-12-30T10:30:53.734Z,98.95
2018-12-30T10:33:23.064Z,98.95
2018-12-30T10:35:52.369Z,99.47
2018-12-30T10:38:21.691Z,99.09
2018-12-30T10:40:51.010Z,98.25
2018-12-30T10:43:20.333Z,97.57
2018-12-30T10:45:49.652Z,98.17
2018-12-30T10:48:18.936Z,97.36
2018-12-30T10:50:48.274Z,97.60
2018-12-30T10:53:17.602Z,97.10
2018-12-30T10:55:46.932Z,97.37
2018-12-30T10:58:16.258Z,97.55
2018-12-30T11:00:45.589Z,97.92
2018-12-30T11:03:14.903Z,98.36
2018-12-30T11:05:44.233Z,97.20
2018-12-30T11:08:13.549Z,97.77
2018-12-30T11:10:42.881Z,97.97
2018-12-30T11:13:12.182Z,97.97
2018-12-30T11:15:41.549Z,97.48
2018-12-30T11:18:10.866Z,98.23
2018-12-30T11:20:40.204Z,97.83
2018-12-30T11:23:09.526Z,97.57
2018-12-30T11:25:38.861Z,98.15
2018-12-30T11:28:08.276Z,97.78
2018-12-30T11:30:37.567Z,97.12
2018-12-30T11:33:06.887Z,97.67
2018-12-30T11:35:36.198Z,97.35
2018-12-30T11:38:05.538Z,97.93
2018-12-30T11:40:35.751Z,98.24
2018-12-30T11:43:05.161Z,98.19
2018-12-30T11:45:34.486Z,97.94
2018-12-30T11:48:03.817Z,98.15
2018-12-30T11:50:33.158Z,98.04
2018-12-30T11:53:02.477Z,98.01
2018-12-30T11:55:31.802Z,98.15
2018-12-30T11:58:01.097Z,98.08
2018-12-30T12:00:34.151Z,97.96
2018-12-30T12:03:03.498Z,97.41
2018-12-30T12:05:32.821Z,97.46
2018-12-30T12:08:02.139Z,98.36
2018-12-30T12:10:31.491Z,97.83
2018-12-30T12:13:00.838Z,97.86
2018-12-30T12:15:30.219Z,97.41
2018-12-30T12:17:59.491Z,97.01
2018-12-30T12:20:28.797Z,98.10
2018-12-30T12:22:58.124Z,98.03
2018-12-30T12:25:27.448Z,98.23
2018-12-30T12:27:56.797Z,97.31
2018-12-30T12:30:26.060Z,97.66
2018-12-30T12:32:55.356Z,98.36
2018-12-30T12:35:24.668Z,97.17
2018-12-30T12:37:53.995Z,97.07
2018-12-30T12:40:23.324Z,97.38
2018-12-30T12:42:52.646Z,97.38
2018-12-30T12:45:21.979Z,98.09
2018-12-30T12:47:51.326Z,97.57
2018-12-30T12:50:20.634Z,97.99
2018-12-30T12:52:49.958Z,98.47
2018-12-30T12:55:19.306Z,98.37
2018-12-30T12:57:48.626Z,98.40
2018-12-30T13:00:17.962Z,98.54
2018-12-30T13:02:47.262Z,98.22
2018-12-30T13:05:16.586Z,97.98
2018-12-30T13:07:45.934Z,98.31
2018-12-30T13:10:15.327Z,97.92
2018-12-30T13:12:44.633Z,98.56
2018-12-30T13:15:14.052Z,98.14
2018-12-30T13:17:43.392Z,98.66
2018-12-30T13:20:12.709Z,98.72
2018-12-30T13:22:43.025Z,98.21
2018-12-30T13:25:12.346Z,98.77
2018-12-30T13:27:41.684Z,98.77
2018-12-30T13:30:11.941Z,98.19
2018-12-30T13:32:41.287Z,98.41
2018-12-30T13:35:10.619Z,98.55
2018-12-30T13:37:39.951Z,98.54
2018-12-30T13:40:09.261Z,98.22
2018-12-30T13:42:38.593Z,98.66
2018-12-30T13:45:07.993Z,98.70
2018-12-30T13:47:37.307Z,98.65
2018-12-30T13:50:07.391Z,98.40
2018-12-30T13:52:36.745Z,98.95
2018-12-30T13:55:06.048Z,99.40
2018-12-30T13:57:36.202Z,99.63
2018-12-30T14:00:08.562Z,99.68
2018-12-30T14:02:37.878Z,100.00
2018-12-30T14:05:08.291Z,100.00
2018-12-30T14:07:37.603Z,100.00
2018-12-30T14:10:09.007Z,100.00
2018-12-30T14:12:38.353Z,100.00
2018-12-30T14:15:07.787Z,100.00
2018-12-30T14:17:37.115Z,100.00
2018-12-30T14:20:07.586Z,100.00
2018-12-30T14:22:36.908Z,100.00
2018-12-30T14:25:06.511Z,100.00
2018-12-30T14:27:35.844Z,100.00
2018-12-30T14:30:07.052Z,100.00
2018-12-30T14:32:36.391Z,100.00
2018-12-30T14:35:06.684Z,100.00
2018-12-30T14:37:35.983Z,100.00
2018-12-30T14:40:05.862Z,100.00
2018-12-30T14:42:35.190Z,100.00
2018-12-30T14:45:06.151Z,100.00
2018-12-30T14:47:35.504Z,100.00
2018-12-30T14:50:07.674Z,100.00
2018-12-30T14:52:37.008Z,100.00
2018-12-30T14:55:06.491Z,100.00
2018-12-30T14:57:35.871Z,100.00
2018-12-30T15:00:07.818Z,100.00
2018-12-30T15:02:37.164Z,100.00
2018-12-30T15:05:06.473Z,100.00
2018-12-30T15:07:35.806Z,100.00
2018-12-30T15:10:05.283Z,100.00
2018-12-30T15:12:34.628Z,100.00
2018-12-30T15:15:04.189Z,100.00
2018-12-30T15:17:33.521Z,100.00
2018-12-30T15:20:03.501Z,100.00
2018-12-30T15:22:32.833Z,100.00
2018-12-30T15:25:02.163Z,100.00
2018-12-30T15:27:31.520Z,100.00
2018-12-30T15:30:00.877Z,100.00
2018-12-30T15:32:30.194Z,100.00
2018-12-30T15:34:59.522Z,100.00
2018-12-30T15:37:28.835Z,100.00
2018-12-30T15:39:58.156Z,100.00
2018-12-30T15:42:28.418Z,100.00
2018-12-30T15:44:57.758Z,100.00
2018-12-30T15:47:27.077Z,100.00
2018-12-30T15:49:57.326Z,100.00
2018-12-30T15:52:26.638Z,100.00
2018-12-30T15:54:57.047Z,100.00
2018-12-30T15:57:26.374Z,100.00
2018-12-30T15:59:55.665Z,100.00
2018-12-30T16:02:26.291Z,100.00
2018-12-30T16:04:55.700Z,100.00
2018-12-30T16:07:26.078Z,100.00
2018-12-30T16:09:55.433Z,100.00
2018-12-30T16:12:24.747Z,100.00
2018-12-30T16:14:55.045Z,100.00
2018-12-30T16:17:24.375Z,100.00
2018-12-30T16:19:53.706Z,100.00
2018-12-30T16:22:23.119Z,100.00
2018-12-30T16:24:52.424Z,100.00
2018-12-30T16:27:21.747Z,100.00
2018-12-30T16:29:51.074Z,100.00
2018-12-30T16:32:20.423Z,100.00
2018-12-30T16:34:49.760Z,100.00
2018-12-30T16:37:19.060Z,100.00
2018-12-30T16:39:49.342Z,100.00
2018-12-30T16:42:18.666Z,100.00
2018-12-30T16:44:47.998Z,100.00
2018-12-30T16:47:17.343Z,100.00
2018-12-30T16:49:46.760Z,100.00
2018-12-30T16:52:16.129Z,100.00
2018-12-30T16:54:45.466Z,100.00
2018-12-30T16:57:14.818Z,100.00
2018-12-30T16:59:44.772Z,100.00
2018-12-30T17:02:14.169Z,100.00
2018-12-30T17:04:43.490Z,100.00
2018-12-30T17:07:17.839Z,100.00
2018-12-30T17:09:48.183Z,100.00
2018-12-30T17:12:17.561Z,100.00
2018-12-30T17:14:46.965Z,100.00
2018-12-30T17:17:17.273Z,100.00
2018-12-30T17:19:46.636Z,100.00
2018-12-30T17:22:15.964Z,100.00
2018-12-30T17:24:45.298Z,100.00
2018-12-30T17:27:20.362Z,100.00
2018-12-30T17:29:49.716Z,100.00
2018-12-30T17:32:19.031Z,100.00
2018-12-30T17:34:49.348Z,100.00
2018-12-30T17:37:18.767Z,100.00
2018-12-30T17:39:48.055Z,100.00
2018-12-30T17:42:17.384Z,100.00
2018-12-30T17:44:47.810Z,100.00
2018-12-30T17:47:17.155Z,100.00
2018-12-30T17:49:46.509Z,100.00
2018-12-30T17:52:15.821Z,100.00
2018-12-30T17:54:45.186Z,100.00
2018-12-30T17:57:14.507Z,100.00
2018-12-30T17:59:43.839Z,100.00
2018-12-30T18:02:13.265Z,100.00
2018-12-30T18:04:42.600Z,100.00
2018-12-30T18:07:11.940Z,100.00
2018-12-30T18:09:41.242Z,100.00
2018-12-30T18:12:10.562Z,100.00
2018-12-30T18:14:39.965Z,100.00
2018-12-30T18:17:10.243Z,100.00
2018-12-30T18:19:39.567Z,100.00
2018-12-30T18:22:08.921Z,100.00
2018-12-30T18:24:38.242Z,100.00
2018-12-30T18:27:07.778Z,100.00
2018-12-30T18:29:37.149Z,100.00
2018-12-30T18:32:06.409Z,100.00
2018-12-30T18:34:35.742Z,100.00
2018-12-30T18:37:05.140Z,100.00
2018-12-30T18:39:34.507Z,100.00
2018-12-30T18:42:03.810Z,100.00
2018-12-30T18:44:33.141Z,100.00
2018-12-30T18:47:02.470Z,100.00
2018-12-30T18:49:31.824Z,100.00
2018-12-30T18:52:01.148Z,100.00
2018-12-30T18:54:32.447Z,100.00
2018-12-30T18:57:02.720Z,100.00
2018-12-30T18:59:32.049Z,100.00
2018-12-30T19:02:02.390Z,100.00
2018-12-30T19:04:31.717Z,100.00
2018-12-30T19:07:01.964Z,100.00
2018-12-30T19:09:32.184Z,100.00
2018-12-30T19:12:01.524Z,100.00
2018-12-30T19:14:31.839Z,100.00
2018-12-30T19:17:01.167Z,100.00
2018-12-30T19:19:30.488Z,100.00
2018-12-30T19:21:59.850Z,100.00
2018-12-30T19:24:29.176Z,100.00
2018-12-30T19:26:58.521Z,100.00
2018-12-30T19:29:27.911Z,100.00
2018-12-30T19:31:57.244Z,100.00
2018-12-30T19:34:26.615Z,100.00
2018-12-30T19:36:55.972Z,100.00
2018-12-30T19:39:25.310Z,100.00
2018-12-30T19:41:54.732Z,100.00
2018-12-30T19:44:25.076Z,100.00
2018-12-30T19:46:54.435Z,100.00
2018-12-30T19:49:23.781Z,100.00
2018-12-30T19:51:53.107Z,100.00
2018-12-30T19:54:22.472Z,100.00
2018-12-30T19:56:52.898Z,100.00
2018-12-30T19:59:23.227Z,100.00
2018-12-30T20:01:53.538Z,100.00
2018-12-30T20:04:22.861Z,100.00
2018-12-30T20:06:52.235Z,100.00
2018-12-30T20:09:21.564Z,100.00
2018-12-30T20:11:50.970Z,100.00
2018-12-30T20:14:20.284Z,100.00
2018-12-30T20:16:51.564Z,100.00
2018-12-30T20:19:20.919Z,100.00
2018-12-30T20:21:50.253Z,100.00
2018-12-30T20:24:19.597Z,100.00
2018-12-30T20:26:48.923Z,100.00
2018-12-30T20:29:18.256Z,100.00
2018-12-30T20:31:47.609Z,100.00
2018-12-30T20:34:18.864Z,100.00
2018-12-30T20:36:49.182Z,100.00
2018-12-30T20:39:18.519Z,100.00
2018-12-30T20:41:47.901Z,100.00
2018-12-30T20:44:17.308Z,100.00
2018-12-30T20:46:47.630Z,100.00
2018-12-30T20:49:16.963Z,100.00
2018-12-30T20:51:47.287Z,100.00
2018-12-30T20:54:17.576Z,100.00
2018-12-30T20:56:46.904Z,100.00
2018-12-30T20:59:16.197Z,100.00
2018-12-30T21:01:45.514Z,100.00
2018-12-30T21:04:14.877Z,100.00
2018-12-30T21:06:44.244Z,100.00
2018-12-30T21:09:13.574Z,100.00
2018-12-30T21:11:43.954Z,100.00
2018-12-30T21:14:13.296Z,100.00
2018-12-30T21:16:42.684Z,100.00
2018-12-30T21:19:12.017Z,100.00
2018-12-30T21:21:41.352Z,100.00
2018-12-30T21:24:10.757Z,100.00
2018-12-30T21:26:45.304Z,100.00
2018-12-30T21:29:11.140Z,100.00
2018-12-30T21:31:40.566Z,100.00
2018-12-30T21:34:09.895Z,100.00
2018-12-30T21:36:39.223Z,100.00
2018-12-30T21:39:08.579Z,100.00
2018-12-30T21:41:37.896Z,100.00
2018-12-30T21:44:07.261Z,100.00
2018-12-30T21:46:36.612Z,100.00
2018-12-30T21:49:05.948Z,100.00
2018-12-30T21:51:35.251Z,100.00
2018-12-30T21:54:04.588Z,100.00
2018-12-30T21:56:33.933Z,100.00
2018-12-30T21:59:03.326Z,100.00
2018-12-30T22:01:32.660Z,100.00
2018-12-30T22:04:02.028Z,100.00
2018-12-30T22:06:31.379Z,100.00
2018-12-30T22:09:05.008Z,100.00
2018-12-30T22:11:34.316Z,100.00
2018-12-30T22:14:03.620Z,100.00
2018-12-30T22:16:32.953Z,100.00
2018-12-30T22:19:02.279Z,100.00
2018-12-30T22:21:31.633Z,100.00
2018-12-30T22:24:00.970Z,100.00
2018-12-30T22:26:30.316Z,100.00
2018-12-30T22:28:59.676Z,100.00
2018-12-30T22:31:29.036Z,100.00
2018-12-30T22:33:58.379Z,100.00
2018-12-30T22:36:28.713Z,100.00
2018-12-30T22:38:58.070Z,100.00
2018-12-30T22:41:27.407Z,100.00
2018-12-30T22:43:56.742Z,100.00
2018-12-30T22:46:26.061Z,100.00
2018-12-30T22:48:55.420Z,100.00
2018-12-30T22:51:25.750Z,100.00
2018-12-30T22:53:55.099Z,100.00
2018-12-30T22:56:24.445Z,100.00
2018-12-30T22:58:53.794Z,100.00
2018-12-30T23:01:23.658Z,100.00
2018-12-30T23:03:54.028Z,100.00
2018-12-30T23:06:23.341Z,100.00
2018-12-30T23:08:52.654Z,100.00
2018-12-30T23:11:21.972Z,100.00
2018-12-30T23:13:51.327Z,100.00
2018-12-30T23:16:20.677Z,100.00
2018-12-30T23:18:50.066Z,100.00
2018-12-30T23:21:19.380Z,100.00
2018-12-30T23:23:48.700Z,100.00
2018-12-30T23:26:19.053Z,100.00
2018-12-30T23:28:49.347Z,100.00
2018-12-30T23:31:18.658Z,100.00
2018-12-30T23:33:48.066Z,100.00
2018-12-30T23:36:17.465Z,100.00
2018-12-30T23:38:46.801Z,100.00
2018-12-30T23:41:16.119Z,100.00
2018-12-30T23:43:45.451Z,100.00
2018-12-30T23:46:14.775Z,100.00
2018-12-30T23:48:44.095Z,100.00
2018-12-30T23:51:14.377Z,100.00
2018-12-30T23:53:43.689Z,100.00
2018-12-30T23:56:13.035Z,100.00
2018-12-30T23:58:42.338Z,100.00
